Time;durP1;ratioP1;P1;durP2;ratioP2;P2;SDS_P1;SDS_P2;PMS_P1;PMS_P2;Temp;Humidity;BMP_temperature;BMP_pressure;BME280_temperature;BME280_humidity;BME280_pressure;Samples;Min_cycle;Max_cycle;Signal;HPM_P1;HPM_P2
2021/12/17 00:04:50;;;;;;;11.60;8.20;;;;;;;;;;5086546;28;20448;-67
2021/12/17 00:07:19;;;;;;;13.17;8.43;;;;;;;;;;5059771;28;20450;-67
2021/12/17 00:09:47;;;;;;;11.10;8.20;;;;;;;;;;5058974;28;20835;-67
2021/12/17 00:12:16;;;;;;;12.63;8.23;;;;;;;;;;5059055;28;20488;-67
2021/12/17 00:14:48;;;;;;;15.53;8.87;;;;;;;;;;5059290;28;20448;-67
2021/12/17 00:17:21;;;;;;;12.57;8.57;;;;;;;;;;5059583;28;20454;-67
2021/12/17 00:20:09;;;;;;;11.23;8.30;;;;;;;;;;5059563;28;20539;-67
2021/12/17 00:50:35;;;;;;;11.87;8.83;;;;;;;;;;5039783;28;20442;-66
2021/12/17 00:53:06;;;;;;;11.53;8.77;;;;;;;;;;5038785;28;20453;-67
2021/12/17 00:55:34;;;;;;;11.10;8.23;;;;;;;;;;5045767;28;20463;-66
2021/12/17 00:58:02;;;;;;;12.13;7.97;;;;;;;;;;5054449;28;20554;-67
2021/12/17 01:00:30;;;;;;;13.00;8.47;;;;;;;;;;5038522;28;20813;-66
2021/12/17 01:02:58;;;;;;;13.47;8.70;;;;;;;;;;5038429;28;20465;-67
2021/12/17 01:05:29;;;;;;;14.53;9.33;;;;;;;;;;5048919;28;20564;-67
2021/12/17 01:07:58;;;;;;;15.30;9.07;;;;;;;;;;5096657;28;20973;-67
2021/12/17 01:10:29;;;;;;;14.40;9.33;;;;;;;;;;5098144;28;20938;-67
2021/12/17 01:12:57;;;;;;;17.00;9.47;;;;;;;;;;5098324;28;20435;-66
2021/12/17 01:15:26;;;;;;;14.53;9.00;;;;;;;;;;5098512;28;20444;-66
2021/12/17 01:17:57;;;;;;;17.30;9.07;;;;;;;;;;5098426;28;20444;-66
2021/12/17 01:20:45;;;;;;;13.83;9.17;;;;;;;;;;5098416;28;20493;-66
2021/12/17 01:23:32;;;;;;;11.10;8.57;;;;;;;;;;5094497;28;20468;-67
2021/12/17 01:37:36;;;;;;;13.83;8.83;;;;;;;;;;5097439;28;20821;-67
2021/12/17 01:40:45;;;;;;;14.87;8.83;;;;;;;;;;5097524;28;20546;-67
2021/12/17 01:43:00;;;;;;;12.43;8.37;;;;;;;;;;5096762;28;20454;-67
2021/12/17 01:45:32;;;;;;;15.40;9.33;;;;;;;;;;5096960;28;20459;-67
2021/12/17 01:48:02;;;;;;;14.20;9.70;;;;;;;;;;5095165;28;20458;-68
2021/12/17 01:56:30;;;;;;;13.50;9.60;;;;;;;;;;5096808;28;20840;-67
2021/12/17 01:59:21;;;;;;;12.33;9.83;;;;;;;;;;5096752;28;20974;-67
2021/12/17 02:01:49;;;;;;;13.63;10.23;;;;;;;;;;5097507;28;20447;-68
2021/12/17 02:04:17;;;;;;;13.73;9.57;;;;;;;;;;5095900;28;20219;-67
2021/12/17 02:06:45;;;;;;;15.40;9.20;;;;;;;;;;5097409;28;20240;-68
2021/12/17 02:09:37;;;;;;;13.67;9.57;;;;;;;;;;5096151;28;20734;-67
2021/12/17 02:12:35;;;;;;;12.33;8.67;;;;;;;;;;5095862;28;20225;-68
2021/12/17 02:29:00;;;;;;;12.23;9.07;;;;;;;;;;5096053;28;20474;-67
2021/12/17 02:31:32;;;;;;;15.00;8.77;;;;;;;;;;5097350;28;20547;-67
2021/12/17 02:34:03;;;;;;;13.87;8.63;;;;;;;;;;5097438;28;20440;-66
2021/12/17 02:36:35;;;;;;;11.87;8.60;;;;;;;;;;5097517;28;20448;-67
2021/12/17 02:39:23;;;;;;;13.50;8.57;;;;;;;;;;5097067;28;20469;-67
2021/12/17 02:47:22;;;;;;;12.47;8.93;;;;;;;;;;5096499;28;20437;-67
2021/12/17 02:49:50;;;;;;;13.10;8.40;;;;;;;;;;5096316;28;20467;-67
2021/12/17 02:52:20;;;;;;;12.50;8.53;;;;;;;;;;5097255;28;21012;-67
2021/12/17 02:54:48;;;;;;;13.17;8.77;;;;;;;;;;5097072;28;20440;-67
2021/12/17 02:57:16;;;;;;;12.43;8.17;;;;;;;;;;5091978;28;20487;-67
2021/12/17 02:59:44;;;;;;;14.17;8.70;;;;;;;;;;5096191;28;20837;-67
2021/12/17 03:02:12;;;;;;;11.13;8.23;;;;;;;;;;5097213;28;20972;-67
2021/12/17 03:04:41;;;;;;;14.90;9.40;;;;;;;;;;5095578;28;20830;-67
2021/12/17 03:07:11;;;;;;;14.77;9.37;;;;;;;;;;5096968;28;20475;-67
2021/12/17 03:09:58;;;;;;;16.70;9.87;;;;;;;;;;5096892;28;20470;-67
2021/12/17 03:12:31;;;;;;;14.10;8.67;;;;;;;;;;5092178;28;20479;-67
2021/12/17 03:15:07;;;;;;;12.80;8.60;;;;;;;;;;5100489;28;20449;-67
2021/12/17 03:17:58;;;;;;;12.40;9.43;;;;;;;;;;5100002;28;20537;-67
2021/12/17 03:23:29;;;;;;;13.97;8.93;;;;;;;;;;5100008;28;20462;-67
2021/12/17 03:25:59;;;;;;;18.13;9.27;;;;;;;;;;5099926;28;20526;-67
2021/12/17 03:28:27;;;;;;;13.03;9.57;;;;;;;;;;5103663;28;20545;-67
2021/12/17 03:30:57;;;;;;;14.77;9.13;;;;;;;;;;5102788;28;20459;-67
2021/12/17 03:33:26;;;;;;;10.77;8.93;;;;;;;;;;5100578;28;20485;-67
2021/12/17 03:35:54;;;;;;;11.67;8.47;;;;;;;;;;5100689;28;20467;-67
2021/12/17 03:38:22;;;;;;;11.70;9.30;;;;;;;;;;5100178;28;20840;-67
2021/12/17 03:40:57;;;;;;;11.43;8.83;;;;;;;;;;5098849;28;20458;-67
2021/12/17 03:43:30;;;;;;;15.07;9.70;;;;;;;;;;5087463;28;20445;-67
2021/12/17 03:45:58;;;;;;;12.67;9.17;;;;;;;;;;5099864;28;20456;-67
2021/12/17 03:48:29;;;;;;;12.53;9.13;;;;;;;;;;5100289;28;20593;-67
2021/12/17 03:50:57;;;;;;;15.93;9.07;;;;;;;;;;5099202;28;21022;-67
2021/12/17 03:53:25;;;;;;;14.87;9.77;;;;;;;;;;5099101;28;20480;-67
2021/12/17 03:55:53;;;;;;;15.47;9.87;;;;;;;;;;5099742;28;20440;-67
2021/12/17 03:58:21;;;;;;;15.10;9.50;;;;;;;;;;5098631;28;20490;-67
2021/12/17 04:00:50;;;;;;;14.27;9.67;;;;;;;;;;5099029;28;20452;-67
2021/12/17 04:03:18;;;;;;;15.10;9.17;;;;;;;;;;5099398;28;20505;-67
2021/12/17 04:05:46;;;;;;;14.50;9.17;;;;;;;;;;5099709;28;20475;-67
2021/12/17 04:08:14;;;;;;;12.33;8.40;;;;;;;;;;5099880;28;20467;-67
2021/12/17 04:10:46;;;;;;;13.93;9.13;;;;;;;;;;5099397;28;20447;-67
2021/12/17 04:13:28;;;;;;;11.77;8.60;;;;;;;;;;5099417;28;20480;-67
2021/12/17 04:16:00;;;;;;;17.10;10.10;;;;;;;;;;5099355;28;20522;-67
2021/12/17 04:18:29;;;;;;;14.20;9.90;;;;;;;;;;5095634;28;20471;-67
2021/12/17 04:20:59;;;;;;;16.60;10.60;;;;;;;;;;5093994;28;20427;-66
2021/12/17 04:23:27;;;;;;;16.00;10.67;;;;;;;;;;5099383;28;20515;-67
2021/12/17 04:25:54;;;;;;;17.90;10.77;;;;;;;;;;5092335;28;22343;-66
2021/12/17 04:28:23;;;;;;;17.87;10.67;;;;;;;;;;5096126;28;20462;-66
2021/12/17 04:30:51;;;;;;;14.30;10.67;;;;;;;;;;5096371;28;20432;-66
2021/12/17 04:33:20;;;;;;;16.97;11.13;;;;;;;;;;5098811;28;20467;-66
2021/12/17 04:35:48;;;;;;;18.00;10.90;;;;;;;;;;5096101;28;20432;-66
2021/12/17 04:38:17;;;;;;;17.10;10.50;;;;;;;;;;5095259;28;20497;-66
2021/12/17 04:40:45;;;;;;;22.30;13.07;;;;;;;;;;5098436;28;20442;-66
2021/12/17 04:43:19;;;;;;;17.23;11.10;;;;;;;;;;5095753;28;20947;-66
2021/12/17 04:45:56;;;;;;;18.80;10.80;;;;;;;;;;5097539;28;20803;-66
2021/12/17 04:59:28;;;;;;;17.83;11.63;;;;;;;;;;5098955;28;20478;-67
2021/12/17 05:01:56;;;;;;;18.10;12.03;;;;;;;;;;5097987;28;20442;-67
2021/12/17 05:04:26;;;;;;;24.73;11.17;;;;;;;;;;5098780;28;20462;-67
2021/12/17 05:06:55;;;;;;;20.13;12.07;;;;;;;;;;5097102;28;20532;-67
2021/12/17 05:09:30;;;;;;;16.70;10.87;;;;;;;;;;5098222;28;20463;-66
2021/12/17 05:20:29;;;;;;;19.10;12.47;;;;;;;;;;5086120;28;20451;-66
2021/12/17 05:22:59;;;;;;;22.87;11.97;;;;;;;;;;5093359;28;20458;-66
2021/12/17 05:25:29;;;;;;;22.37;12.27;;;;;;;;;;5092587;28;20530;-66
2021/12/17 05:28:00;;;;;;;19.80;11.97;;;;;;;;;;5095536;28;20530;-67
2021/12/17 05:30:29;;;;;;;19.13;12.00;;;;;;;;;;5094800;28;20484;-66
2021/12/17 05:32:57;;;;;;;21.10;11.80;;;;;;;;;;5094086;28;20479;-66
2021/12/17 05:35:27;;;;;;;18.40;13.23;;;;;;;;;;5097447;28;20435;-66
2021/12/17 05:37:55;;;;;;;18.70;11.73;;;;;;;;;;5098151;28;20450;-66
2021/12/17 05:40:23;;;;;;;19.53;11.80;;;;;;;;;;5097890;28;20450;-66
2021/12/17 05:42:58;;;;;;;16.40;12.13;;;;;;;;;;5097789;28;20444;-66
2021/12/17 05:45:34;;;;;;;17.73;11.77;;;;;;;;;;5098039;28;20439;-66
2021/12/17 05:48:04;;;;;;;16.23;11.00;;;;;;;;;;5097578;28;20843;-66
2021/12/17 05:50:34;;;;;;;19.70;13.67;;;;;;;;;;5096939;28;20534;-66
2021/12/17 05:53:02;;;;;;;21.03;13.13;;;;;;;;;;5096874;28;20489;-66
2021/12/17 05:55:30;;;;;;;23.30;13.40;;;;;;;;;;5095815;28;20829;-66
2021/12/17 05:57:58;;;;;;;21.37;13.70;;;;;;;;;;5096309;28;20446;-66
2021/12/17 06:00:29;;;;;;;22.67;13.87;;;;;;;;;;5095710;28;20454;-66
2021/12/17 06:02:57;;;;;;;20.17;13.50;;;;;;;;;;5095916;28;20941;-66
2021/12/17 06:05:25;;;;;;;20.17;12.63;;;;;;;;;;5090617;28;20832;-65
2021/12/17 06:07:55;;;;;;;19.53;13.33;;;;;;;;;;5096237;28;20526;-66
2021/12/17 06:10:23;;;;;;;20.53;12.70;;;;;;;;;;5096858;28;20449;-66
2021/12/17 06:12:51;;;;;;;19.67;12.27;;;;;;;;;;5097396;28;20922;-66
2021/12/17 06:15:20;;;;;;;20.80;13.57;;;;;;;;;;5094833;28;20454;-67
2021/12/17 06:17:49;;;;;;;20.70;13.57;;;;;;;;;;5097103;28;20440;-66
2021/12/17 06:20:19;;;;;;;21.30;13.33;;;;;;;;;;5097479;28;20451;-66
2021/12/17 06:22:47;;;;;;;21.30;12.60;;;;;;;;;;5094123;28;20451;-66
2021/12/17 06:25:16;;;;;;;19.20;11.60;;;;;;;;;;5096532;28;20436;-65
2021/12/17 06:27:45;;;;;;;17.93;11.73;;;;;;;;;;5096568;28;20456;-65
2021/12/17 06:30:14;;;;;;;19.93;13.07;;;;;;;;;;5096369;28;20432;-66
2021/12/17 06:32:42;;;;;;;20.50;13.20;;;;;;;;;;5098900;28;20452;-65
2021/12/17 06:35:10;;;;;;;18.43;12.40;;;;;;;;;;5098556;28;20982;-65
2021/12/17 06:37:40;;;;;;;22.33;13.00;;;;;;;;;;5100145;28;20802;-65
2021/12/17 06:40:09;;;;;;;20.47;12.60;;;;;;;;;;5105003;28;20454;-66
2021/12/17 06:42:39;;;;;;;17.43;11.70;;;;;;;;;;5104085;28;20431;-65
2021/12/17 06:45:16;;;;;;;23.60;12.87;;;;;;;;;;5102654;28;20446;-65
2021/12/17 06:47:52;;;;;;;18.37;12.37;;;;;;;;;;5104232;28;20444;-65
2021/12/17 06:59:01;;;;;;;18.27;12.00;;;;;;;;;;5098972;28;20486;-65
2021/12/17 07:24:14;;;;;;;24.03;18.00;;;;;;;;;;5089781;28;20459;-65
2021/12/17 07:32:30;;;;;;;21.97;13.50;;;;;;;;;;5108063;28;21252;-65
2021/12/17 07:40:42;;;;;;;18.33;11.70;;;;;;;;;;5036229;28;20452;-77
2021/12/17 07:43:14;;;;;;;18.33;12.90;;;;;;;;;;5092572;28;20538;-65
2021/12/17 07:45:42;;;;;;;19.03;12.53;;;;;;;;;;5108590;28;20434;-65
2021/12/17 07:48:13;;;;;;;22.77;13.03;;;;;;;;;;5107887;28;20459;-65
2021/12/17 07:50:42;;;;;;;21.40;12.67;;;;;;;;;;5106877;28;20451;-66
2021/12/17 07:53:10;;;;;;;19.80;11.90;;;;;;;;;;5105808;28;20972;-65
2021/12/17 07:55:38;;;;;;;23.37;12.87;;;;;;;;;;5107142;28;20471;-65
2021/12/17 07:58:06;;;;;;;22.00;12.57;;;;;;;;;;5105905;28;20464;-66
2021/12/17 08:00:34;;;;;;;18.37;12.87;;;;;;;;;;5105644;28;20538;-65
2021/12/17 08:03:02;;;;;;;18.93;12.23;;;;;;;;;;5108372;28;20451;-65
2021/12/17 08:05:32;;;;;;;20.37;12.10;;;;;;;;;;5107388;28;20468;-66
2021/12/17 08:08:00;;;;;;;21.70;13.80;;;;;;;;;;5107633;28;20481;-64
2021/12/17 08:10:28;;;;;;;20.47;12.30;;;;;;;;;;5105263;28;20462;-65
2021/12/17 08:12:56;;;;;;;22.37;13.13;;;;;;;;;;5107390;28;20501;-63
2021/12/17 08:15:31;;;;;;;21.53;13.10;;;;;;;;;;5107824;28;20981;-65
2021/12/17 08:24:19;;;;;;;20.53;13.67;;;;;;;;;;5108198;28;20803;-66
2021/12/17 08:26:55;;;;;;;16.10;11.60;;;;;;;;;;5105221;28;20787;-65
2021/12/17 08:29:42;;;;;;;25.07;12.63;;;;;;;;;;5104122;28;20462;-65
2021/12/17 08:32:10;;;;;;;20.37;12.53;;;;;;;;;;5104174;28;20446;-65
2021/12/17 08:34:47;;;;;;;24.03;13.67;;;;;;;;;;5097438;28;20566;-65
2021/12/17 08:37:17;;;;;;;20.13;12.77;;;;;;;;;;5104957;28;20454;-65
2021/12/17 08:39:45;;;;;;;22.50;12.97;;;;;;;;;;5100741;28;20477;-65
2021/12/17 08:42:13;;;;;;;21.00;12.83;;;;;;;;;;5111114;28;20455;-66
2021/12/17 08:44:41;;;;;;;22.13;12.43;;;;;;;;;;5098060;28;20448;-66
2021/12/17 08:47:10;;;;;;;19.80;11.60;;;;;;;;;;5098607;28;20444;-65
2021/12/17 08:49:40;;;;;;;21.03;12.90;;;;;;;;;;5098644;28;20535;-65
2021/12/17 08:52:09;;;;;;;20.00;12.03;;;;;;;;;;5097828;28;20454;-66
2021/12/17 08:54:39;;;;;;;20.10;12.33;;;;;;;;;;5099146;28;20486;-65
2021/12/17 08:57:08;;;;;;;20.13;12.67;;;;;;;;;;5098915;28;20440;-65
2021/12/17 08:59:36;;;;;;;21.07;13.03;;;;;;;;;;5097983;28;20507;-65
2021/12/17 09:02:05;;;;;;;17.70;11.33;;;;;;;;;;5104986;28;20462;-66
2021/12/17 09:04:33;;;;;;;18.67;12.07;;;;;;;;;;5103796;28;20428;-65
2021/12/17 09:07:01;;;;;;;18.60;12.60;;;;;;;;;;5105237;28;20471;-65
2021/12/17 09:09:29;;;;;;;20.17;12.10;;;;;;;;;;5104753;28;20482;-65
2021/12/17 09:11:59;;;;;;;19.30;12.27;;;;;;;;;;5097149;28;20462;-65
2021/12/17 09:14:28;;;;;;;20.17;12.37;;;;;;;;;;5103892;28;20514;-63
2021/12/17 09:16:56;;;;;;;16.90;11.47;;;;;;;;;;5097162;28;20456;-63
2021/12/17 09:19:24;;;;;;;18.13;11.70;;;;;;;;;;5097890;28;20901;-62
2021/12/17 09:21:52;;;;;;;18.70;12.03;;;;;;;;;;5100428;28;20941;-62
2021/12/17 09:24:21;;;;;;;21.53;14.00;;;;;;;;;;5106939;28;20440;-62
2021/12/17 09:26:49;;;;;;;26.57;12.83;;;;;;;;;;5105038;28;20474;-62
2021/12/17 09:29:18;;;;;;;20.83;12.90;;;;;;;;;;5108750;28;20467;-62
2021/12/17 09:31:46;;;;;;;21.30;13.00;;;;;;;;;;5099360;28;20447;-62
2021/12/17 09:34:14;;;;;;;22.23;12.67;;;;;;;;;;5097649;28;20447;-62
2021/12/17 09:36:42;;;;;;;21.90;12.57;;;;;;;;;;5097618;28;20483;-62
2021/12/17 09:39:10;;;;;;;24.93;13.13;;;;;;;;;;5100618;28;20454;-62
2021/12/17 09:41:38;;;;;;;20.70;13.07;;;;;;;;;;5106948;28;20470;-62
2021/12/17 09:44:06;;;;;;;19.17;12.50;;;;;;;;;;5097995;28;20453;-62
2021/12/17 09:46:35;;;;;;;21.17;12.90;;;;;;;;;;5097618;28;20439;-62
2021/12/17 09:49:04;;;;;;;20.83;12.13;;;;;;;;;;5097363;28;20460;-65
2021/12/17 09:51:32;;;;;;;19.00;12.73;;;;;;;;;;5096827;28;20459;-65
2021/12/17 09:54:00;;;;;;;17.30;12.13;;;;;;;;;;5104837;28;20530;-65
2021/12/17 09:56:28;;;;;;;21.63;12.63;;;;;;;;;;5094798;28;20483;-66
2021/12/17 09:58:56;;;;;;;17.57;11.97;;;;;;;;;;5096994;28;20452;-65
2021/12/17 10:01:25;;;;;;;17.30;11.70;;;;;;;;;;5096773;28;20468;-64
2021/12/17 10:04:08;;;;;;;18.60;12.17;;;;;;;;;;5105452;28;20499;-64
2021/12/17 10:06:38;;;;;;;20.33;12.27;;;;;;;;;;5105565;28;20529;-64
2021/12/17 10:09:06;;;;;;;16.07;11.27;;;;;;;;;;5094104;28;20479;-64
2021/12/17 10:11:34;;;;;;;18.83;12.43;;;;;;;;;;5086576;28;20480;-64
2021/12/17 10:14:16;;;;;;;15.63;10.77;;;;;;;;;;5099885;28;20449;-64
2021/12/17 10:16:44;;;;;;;17.73;11.87;;;;;;;;;;5103923;28;20475;-64
2021/12/17 10:19:12;;;;;;;17.60;11.53;;;;;;;;;;5111561;28;20459;-64
2021/12/17 10:21:47;;;;;;;19.30;10.77;;;;;;;;;;5098174;28;20805;-64
2021/12/17 10:24:22;;;;;;;18.43;11.00;;;;;;;;;;5101273;28;20443;-64
2021/12/17 10:26:50;;;;;;;18.00;11.43;;;;;;;;;;5100250;28;20879;-64
2021/12/17 10:29:20;;;;;;;14.63;10.13;;;;;;;;;;5100172;28;20534;-64
2021/12/17 10:31:56;;;;;;;15.80;9.67;;;;;;;;;;5101061;28;20439;-64
2021/12/17 10:34:25;;;;;;;17.77;10.23;;;;;;;;;;5100180;28;20469;-64
2021/12/17 10:36:54;;;;;;;18.10;11.37;;;;;;;;;;5101296;28;20486;-64
2021/12/17 10:39:23;;;;;;;17.83;10.97;;;;;;;;;;5100666;28;20467;-64
2021/12/17 10:41:51;;;;;;;20.20;11.23;;;;;;;;;;5099830;28;20830;-64
2021/12/17 10:44:21;;;;;;;17.27;11.37;;;;;;;;;;5100257;28;20455;-64
2021/12/17 10:47:05;;;;;;;16.47;11.07;;;;;;;;;;5101598;28;20439;-64
2021/12/17 10:49:33;;;;;;;16.20;9.83;;;;;;;;;;5108359;28;20451;-65
2021/12/17 10:52:14;;;;;;;16.93;11.23;;;;;;;;;;5100749;28;20453;-64
2021/12/17 10:54:42;;;;;;;18.40;12.20;;;;;;;;;;5100463;28;20448;-65
2021/12/17 10:57:10;;;;;;;13.00;10.00;;;;;;;;;;5099363;28;20475;-65
2021/12/17 10:59:38;;;;;;;14.77;10.37;;;;;;;;;;5099559;28;20562;-65
2021/12/17 11:02:11;;;;;;;13.67;9.73;;;;;;;;;;5101324;28;20443;-64
2021/12/17 11:04:40;;;;;;;15.70;10.17;;;;;;;;;;5107135;28;20447;-65
2021/12/17 11:07:12;;;;;;;13.13;9.50;;;;;;;;;;5106466;28;20501;-65
2021/12/17 11:09:41;;;;;;;11.93;9.17;;;;;;;;;;5105395;28;20562;-65
2021/12/17 11:12:20;;;;;;;15.83;10.27;;;;;;;;;;5100341;28;20467;-65
2021/12/17 11:14:48;;;;;;;12.93;9.90;;;;;;;;;;5099438;28;20455;-65
2021/12/17 11:17:18;;;;;;;13.80;9.37;;;;;;;;;;5100192;28;20887;-65
2021/12/17 11:20:07;;;;;;;16.57;10.40;;;;;;;;;;5096868;28;20467;-65
2021/12/17 11:22:37;;;;;;;14.70;9.93;;;;;;;;;;5100264;28;20254;-65
2021/12/17 11:25:06;;;;;;;14.20;10.30;;;;;;;;;;5099788;28;20938;-66
2021/12/17 11:27:34;;;;;;;18.93;10.70;;;;;;;;;;5098916;28;20466;-65
2021/12/17 11:30:03;;;;;;;16.20;11.73;;;;;;;;;;5099516;28;20890;-65
2021/12/17 11:32:31;;;;;;;17.70;10.87;;;;;;;;;;5099852;28;20474;-65
2021/12/17 11:35:02;;;;;;;18.87;12.03;;;;;;;;;;5098321;28;20460;-65
2021/12/17 11:37:31;;;;;;;18.80;12.00;;;;;;;;;;5100067;28;20518;-65
2021/12/17 11:40:02;;;;;;;19.80;12.87;;;;;;;;;;5099417;28;20465;-65
2021/12/17 11:42:39;;;;;;;17.87;12.83;;;;;;;;;;5098445;28;20460;-65
2021/12/17 11:45:26;;;;;;;20.37;12.10;;;;;;;;;;5099468;28;20840;-65
2021/12/17 11:47:57;;;;;;;18.00;11.93;;;;;;;;;;5099987;28;20447;-65
2021/12/17 11:50:25;;;;;;;22.43;12.53;;;;;;;;;;5099756;28;20923;-66
2021/12/17 11:52:54;;;;;;;19.87;12.30;;;;;;;;;;5100178;28;20288;-65
2021/12/17 11:55:25;;;;;;;19.97;12.33;;;;;;;;;;5098369;28;20528;-65
2021/12/17 11:57:54;;;;;;;16.00;11.27;;;;;;;;;;5099517;28;20487;-65
2021/12/17 12:00:24;;;;;;;16.10;12.30;;;;;;;;;;5101367;28;20467;-65
2021/12/17 12:02:54;;;;;;;15.23;10.67;;;;;;;;;;5109530;28;21014;-65
2021/12/17 12:05:34;;;;;;;18.83;10.80;;;;;;;;;;5098389;28;20547;-65
2021/12/17 12:08:20;;;;;;;15.23;10.40;;;;;;;;;;5099752;28;20463;-65
2021/12/17 12:11:02;;;;;;;15.13;11.00;;;;;;;;;;5098388;28;20462;-65
2021/12/17 12:13:35;;;;;;;15.73;11.10;;;;;;;;;;5099477;28;20451;-66
2021/12/17 12:16:04;;;;;;;17.67;10.00;;;;;;;;;;5099287;28;20478;-65
2021/12/17 12:18:46;;;;;;;14.80;9.87;;;;;;;;;;5099575;28;20466;-65
2021/12/17 12:21:16;;;;;;;16.30;10.87;;;;;;;;;;5106860;28;20526;-64
2021/12/17 12:23:45;;;;;;;13.63;10.63;;;;;;;;;;5106586;28;20436;-64
2021/12/17 12:26:16;;;;;;;18.10;11.47;;;;;;;;;;5107347;28;20439;-64
2021/12/17 12:28:54;;;;;;;16.10;10.87;;;;;;;;;;5102274;28;20463;-64
2021/12/17 12:31:41;;;;;;;16.87;10.70;;;;;;;;;;5105244;28;20493;-64
2021/12/17 12:34:10;;;;;;;16.20;10.83;;;;;;;;;;5099966;28;20951;-64
2021/12/17 12:37:00;;;;;;;16.60;10.20;;;;;;;;;;5106527;28;20462;-64
2021/12/17 12:39:29;;;;;;;14.70;10.43;;;;;;;;;;5105539;28;20451;-64
2021/12/17 12:42:01;;;;;;;13.63;10.10;;;;;;;;;;5102846;28;20459;-64
2021/12/17 12:44:48;;;;;;;12.30;9.33;;;;;;;;;;5097633;28;20467;-65
2021/12/17 12:47:36;;;;;;;13.83;10.47;;;;;;;;;;5096407;28;20432;-64
2021/12/17 12:50:11;;;;;;;13.53;9.40;;;;;;;;;;5094913;28;20486;-64
2021/12/17 12:52:41;;;;;;;13.20;8.77;;;;;;;;;;5097061;28;20193;-64
2021/12/17 12:55:12;;;;;;;15.47;9.70;;;;;;;;;;5095789;28;20208;-64
2021/12/17 12:57:45;;;;;;;16.37;10.80;;;;;;;;;;5097642;28;20220;-65
2021/12/17 13:00:15;;;;;;;15.40;10.03;;;;;;;;;;5096965;28;20738;-65
2021/12/17 13:02:44;;;;;;;15.07;9.90;;;;;;;;;;5096328;28;20239;-65
2021/12/17 13:05:12;;;;;;;14.83;10.80;;;;;;;;;;5095645;28;20198;-65
2021/12/17 13:07:41;;;;;;;15.53;10.77;;;;;;;;;;5096335;28;20198;-64
2021/12/17 13:10:11;;;;;;;15.03;10.97;;;;;;;;;;5095996;28;20197;-64
2021/12/17 13:12:40;;;;;;;13.77;10.40;;;;;;;;;;5094993;28;20601;-64
2021/12/17 13:15:18;;;;;;;15.30;10.57;;;;;;;;;;5096316;28;20201;-64
2021/12/17 13:20:56;;;;;;;12.07;9.67;;;;;;;;;;5095887;28;20288;-63
2021/12/17 13:23:24;;;;;;;13.67;9.87;;;;;;;;;;5093032;28;20212;-64
2021/12/17 13:26:04;;;;;;;16.43;10.67;;;;;;;;;;5094045;28;20654;-64
2021/12/17 13:28:45;;;;;;;14.73;10.10;;;;;;;;;;5094372;28;20557;-64
2021/12/17 13:31:27;;;;;;;14.20;10.80;;;;;;;;;;5093140;28;20281;-64
2021/12/17 13:33:55;;;;;;;16.07;10.63;;;;;;;;;;5094449;28;20198;-64
2021/12/17 13:36:23;;;;;;;15.33;10.57;;;;;;;;;;5095934;28;20206;-64
2021/12/17 13:38:56;;;;;;;18.53;11.47;;;;;;;;;;5095520;28;20391;-64
2021/12/17 13:41:34;;;;;;;14.87;9.97;;;;;;;;;;5097114;28;20597;-64
2021/12/17 13:44:02;;;;;;;15.30;11.33;;;;;;;;;;5095105;28;20205;-64
2021/12/17 13:46:35;;;;;;;18.53;10.70;;;;;;;;;;5097294;28;20209;-64
2021/12/17 13:49:03;;;;;;;14.57;10.00;;;;;;;;;;5097349;28;20696;-64
2021/12/17 13:51:31;;;;;;;14.50;9.90;;;;;;;;;;5097892;28;20212;-64
2021/12/17 13:53:59;;;;;;;13.63;10.07;;;;;;;;;;5097315;28;20202;-63
2021/12/17 13:56:37;;;;;;;14.20;9.87;;;;;;;;;;5096152;28;20205;-64
2021/12/17 13:59:07;;;;;;;13.97;9.80;;;;;;;;;;5097577;28;20234;-64
2021/12/17 14:01:38;;;;;;;14.50;9.87;;;;;;;;;;5097669;28;20288;-64
2021/12/17 14:04:15;;;;;;;16.03;10.33;;;;;;;;;;5097610;28;20205;-64
2021/12/17 14:06:52;;;;;;;15.77;10.40;;;;;;;;;;5097249;28;20566;-64
2021/12/17 14:09:25;;;;;;;16.00;11.20;;;;;;;;;;5096852;28;20231;-64
2021/12/17 14:11:53;;;;;;;14.10;10.83;;;;;;;;;;5096273;28;20280;-64
2021/12/17 14:14:42;;;;;;;15.70;10.10;;;;;;;;;;5096211;28;20539;-64
2021/12/17 14:17:11;;;;;;;13.80;9.70;;;;;;;;;;5097259;28;20239;-64
2021/12/17 14:19:44;;;;;;;16.30;10.77;;;;;;;;;;5097463;28;20225;-64
2021/12/17 14:22:28;;;;;;;15.17;9.83;;;;;;;;;;5097062;28;20201;-63
2021/12/17 14:24:57;;;;;;;15.20;10.43;;;;;;;;;;5096689;28;20209;-64
2021/12/17 14:27:40;;;;;;;20.47;11.13;;;;;;;;;;5093970;28;20190;-64
2021/12/17 14:30:08;;;;;;;14.23;9.83;;;;;;;;;;5092010;28;20201;-63
2021/12/17 14:32:42;;;;;;;20.53;11.17;;;;;;;;;;5094207;28;20280;-64
2021/12/17 14:35:10;;;;;;;17.93;11.43;;;;;;;;;;5094538;28;20202;-64
2021/12/17 14:37:48;;;;;;;15.77;10.93;;;;;;;;;;5097018;28;20226;-64
2021/12/17 14:40:28;;;;;;;14.97;10.87;;;;;;;;;;5095364;28;20225;-64
2021/12/17 14:42:57;;;;;;;14.77;10.07;;;;;;;;;;5096296;28;20209;-63
2021/12/17 14:45:35;;;;;;;16.27;10.73;;;;;;;;;;5095251;28;20611;-64
2021/12/17 14:48:20;;;;;;;16.43;10.50;;;;;;;;;;5096842;28;20545;-64
2021/12/17 15:02:24;;;;;;;16.77;10.87;;;;;;;;;;5103682;28;20247;-64
2021/12/17 15:04:53;;;;;;;19.50;12.03;;;;;;;;;;5107380;28;20194;-64
2021/12/17 15:07:23;;;;;;;14.37;10.03;;;;;;;;;;5096651;28;20234;-64
2021/12/17 15:09:51;;;;;;;19.73;10.90;;;;;;;;;;5097401;28;20708;-63
2021/12/17 15:12:39;;;;;;;12.57;9.53;;;;;;;;;;5101800;28;20209;-64
2021/12/17 15:15:11;;;;;;;14.87;10.70;;;;;;;;;;5100792;28;20273;-64
2021/12/17 15:17:39;;;;;;;15.97;10.20;;;;;;;;;;5100709;28;20221;-64
2021/12/17 15:20:20;;;;;;;14.93;9.97;;;;;;;;;;5105166;28;20201;-64
2021/12/17 15:22:48;;;;;;;16.23;10.97;;;;;;;;;;5105793;28;20289;-64
2021/12/17 15:25:17;;;;;;;13.77;9.93;;;;;;;;;;5103472;28;20564;-64
2021/12/17 15:27:45;;;;;;;17.03;10.60;;;;;;;;;;5108015;28;20542;-64
2021/12/17 15:30:14;;;;;;;16.67;10.93;;;;;;;;;;5108724;27;20212;-64
2021/12/17 15:32:43;;;;;;;15.37;11.20;;;;;;;;;;5100540;28;20281;-64
2021/12/17 15:35:12;;;;;;;18.47;10.13;;;;;;;;;;5100227;28;20661;-63
2021/12/17 15:37:42;;;;;;;18.80;11.37;;;;;;;;;;5106759;28;20699;-63
2021/12/17 15:40:12;;;;;;;18.47;12.00;;;;;;;;;;5098937;28;20246;-63
2021/12/17 15:42:40;;;;;;;14.60;10.20;;;;;;;;;;5099434;28;20209;-64
2021/12/17 15:45:09;;;;;;;15.67;11.30;;;;;;;;;;5103833;28;20201;-64
2021/12/17 15:47:37;;;;;;;15.70;10.57;;;;;;;;;;5105622;28;20194;-64
2021/12/17 15:50:06;;;;;;;15.13;10.30;;;;;;;;;;5108036;28;20224;-64
2021/12/17 15:52:34;;;;;;;17.07;11.03;;;;;;;;;;5110133;28;20203;-64
2021/12/17 15:55:05;;;;;;;15.27;10.30;;;;;;;;;;5108653;28;20292;-64
2021/12/17 15:57:35;;;;;;;15.57;10.70;;;;;;;;;;5106851;28;20211;-64
2021/12/17 16:00:04;;;;;;;18.73;11.23;;;;;;;;;;5113618;28;20233;-64
2021/12/17 16:02:32;;;;;;;19.77;11.57;;;;;;;;;;5099337;28;20233;-64
2021/12/17 16:05:01;;;;;;;15.13;10.00;;;;;;;;;;5103896;28;20281;-64
2021/12/17 16:07:29;;;;;;;17.90;11.00;;;;;;;;;;5106906;28;20213;-64
2021/12/17 16:18:41;;;;;;;18.43;12.23;;;;;;;;;;5099132;28;20244;-63
2021/12/17 16:21:08;;;;;;;18.17;11.57;;;;;;;;;;5104625;28;20223;-63
2021/12/17 16:23:40;;;;;;;17.97;12.10;;;;;;;;;;5106925;28;20557;-63
2021/12/17 16:26:09;;;;;;;16.20;12.30;;;;;;;;;;5107835;28;20193;-63
2021/12/17 16:28:38;;;;;;;14.90;10.73;;;;;;;;;;5104243;28;20219;-63
2021/12/17 16:31:09;;;;;;;15.63;11.33;;;;;;;;;;5107531;28;20201;-62
2021/12/17 16:33:38;;;;;;;18.80;11.70;;;;;;;;;;5102859;28;20202;-63
2021/12/17 16:36:06;;;;;;;15.23;10.27;;;;;;;;;;5105115;28;20567;-62
2021/12/17 16:38:35;;;;;;;16.33;10.90;;;;;;;;;;5101044;28;20225;-62
2021/12/17 16:41:04;;;;;;;20.60;12.63;;;;;;;;;;5087789;28;20208;-63
2021/12/17 16:43:32;;;;;;;17.90;11.13;;;;;;;;;;5086205;28;20281;-63
2021/12/17 16:47:00;;;;;;;14.90;10.43;;;;;;;;;;5098246;28;20261;-63
2021/12/17 16:49:14;;;;;;;20.13;11.30;;;;;;;;;;5098658;28;20259;-63
2021/12/17 16:51:42;;;;;;;18.20;12.20;;;;;;;;;;5097359;28;20202;-63
2021/12/17 16:54:10;;;;;;;19.57;11.10;;;;;;;;;;5098537;28;20213;-63
2021/12/17 16:56:39;;;;;;;19.03;12.27;;;;;;;;;;5098247;28;20715;-63
2021/12/17 16:59:07;;;;;;;21.97;13.23;;;;;;;;;;5097456;28;20225;-63
2021/12/17 17:01:39;;;;;;;17.53;12.70;;;;;;;;;;5104978;28;20208;-63
2021/12/17 17:04:07;;;;;;;20.60;12.07;;;;;;;;;;5105028;28;20198;-63
2021/12/17 17:06:38;;;;;;;19.70;12.60;;;;;;;;;;5108134;28;20699;-63
2021/12/17 17:09:07;;;;;;;18.43;11.80;;;;;;;;;;5107361;28;20304;-63
2021/12/17 17:11:37;;;;;;;17.50;12.13;;;;;;;;;;5097397;28;20280;-63
2021/12/17 17:14:05;;;;;;;19.80;12.67;;;;;;;;;;5095186;28;20599;-63
2021/12/17 17:16:33;;;;;;;20.20;12.40;;;;;;;;;;5096224;28;20671;-63
2021/12/17 17:19:02;;;;;;;19.67;12.03;;;;;;;;;;5095880;28;20229;-63
2021/12/17 17:21:30;;;;;;;22.00;13.07;;;;;;;;;;5096291;28;20197;-63
2021/12/17 17:24:00;;;;;;;20.53;12.83;;;;;;;;;;5094560;28;20202;-63
2021/12/17 17:26:28;;;;;;;18.73;13.17;;;;;;;;;;5096620;28;20217;-63
2021/12/17 17:28:57;;;;;;;26.23;13.80;;;;;;;;;;5096601;28;20219;-63